Leviticus — WDC2712 — position and weather

sailwx.info

Track history (hours):
 
Tides and Currents Weather Stations Pressure Air Temp Water Temp Dewpoint Dewpoint Depression Visibility Wind Speed Wind Dir Waves Ship Positions

Leviticus

Owner: Kirby Inland Marine, LP, Houston, TX. More information available from US FCC via Universal Licensing System and Coast Guard Vessel Documentation Center.

Last reported at 2015-May-20 20:32 UTC. Time now 2015-May-23 04:14 UTC.
Position N 30°22' W 091°14'.

Length 12 m.

Type: Other ship. MMSI: 366996690.

Date/timePositionNaut miles runAvg speedWind from/ knotsBaromVisibWave heightAir tempDewpointWater temp
2015-May-20 20:32N 30°22' W 091°14'2 1.6
2015-May-20 19:33N 30°23' W 091°13'0 0.0
2015-May-20 18:28N 30°23' W 091°13'0 0.0
2015-May-20 17:32N 30°23' W 091°13'0 0.0
2015-May-20 16:33N 30°23' W 091°13'0 0.0
2015-May-20 15:33N 30°23' W 091°13'0 0.0
2015-May-20 14:33N 30°23' W 091°13'0 0.0
2015-May-20 13:33N 30°23' W 091°13'0 0.0
2015-May-20 12:33N 30°23' W 091°13'0 0.0
2015-May-20 11:33N 30°23' W 091°13'0 0.3
2015-May-20 10:33N 30°23' W 091°13'8 7.5
2015-May-20 09:33N 30°31' W 091°12'4 3.9
2015-May-20 08:33N 30°30' W 091°17'4 3.8
2015-May-20 07:33N 30°34' W 091°15'6 5.9
2015-May-20 06:33N 30°39' W 091°18'  
2015-May-11 20:32N 39°07' W 084°47'4 4.0
2015-May-11 19:29N 39°06' W 084°42'5 5.3
2015-May-11 18:33N 39°04' W 084°36'5 5.1
2015-May-11 17:33N 39°06' W 084°30'4 3.7
2015-May-11 16:33N 39°04' W 084°26'6 5.5
2015-May-11 15:32N 39°01' W 084°19'6 5.9
2015-May-11 14:33N 38°56' W 084°16'6 6.0
2015-May-11 13:34N 38°50' W 084°14'4 2.8
2015-May-11 12:07N 38°48' W 084°10'2 3.4
2015-May-11 11:31N 38°47' W 084°08'11 5.6
2015-May-11 09:33N 38°46' W 083°54'  
Track history (hours):
 
Tides and Currents Weather Stations Pressure Air Temp Water Temp Dewpoint Dewpoint Depression Visibility Wind Speed Wind Dir Waves Ship Positions

Leviticus

Owner: Kirby Inland Marine, LP, Houston, TX. More information available from US FCC via Universal Licensing System and Coast Guard Vessel Documentation Center.

Last reported at 2015-May-20 20:32 UTC. Time now 2015-May-23 04:14 UTC.
Position N 30°22' W 091°14'.

Length 12 m.

Type: Other ship. MMSI: 366996690.

Date/timePositionNaut miles runAvg speedWind from/ knotsBaromVisibWave heightAir tempDewpointWater temp
2015-May-20 20:32N 30°22' W 091°14'2 1.6
2015-May-20 19:33N 30°23' W 091°13'0 0.0
2015-May-20 18:28N 30°23' W 091°13'0 0.0
2015-May-20 17:32N 30°23' W 091°13'0 0.0
2015-May-20 16:33N 30°23' W 091°13'0 0.0
2015-May-20 15:33N 30°23' W 091°13'0 0.0
2015-May-20 14:33N 30°23' W 091°13'0 0.0
2015-May-20 13:33N 30°23' W 091°13'0 0.0
2015-May-20 12:33N 30°23' W 091°13'0 0.0
2015-May-20 11:33N 30°23' W 091°13'0 0.3
2015-May-20 10:33N 30°23' W 091°13'8 7.5
2015-May-20 09:33N 30°31' W 091°12'4 3.9
2015-May-20 08:33N 30°30' W 091°17'4 3.8
2015-May-20 07:33N 30°34' W 091°15'6 5.9
2015-May-20 06:33N 30°39' W 091°18'  
2015-May-11 20:32N 39°07' W 084°47'4 4.0
2015-May-11 19:29N 39°06' W 084°42'5 5.3
2015-May-11 18:33N 39°04' W 084°36'5 5.1
2015-May-11 17:33N 39°06' W 084°30'4 3.7
2015-May-11 16:33N 39°04' W 084°26'6 5.5
2015-May-11 15:32N 39°01' W 084°19'6 5.9
2015-May-11 14:33N 38°56' W 084°16'6 6.0
2015-May-11 13:34N 38°50' W 084°14'4 2.8
2015-May-11 12:07N 38°48' W 084°10'2 3.4
2015-May-11 11:31N 38°47' W 084°08'11 5.6
2015-May-11 09:33N 38°46' W 083°54'  

Dump ship's entire track history